sensor_id;sensor_type;location;lat;lon;timestamp;P1;durP1;ratioP1;P2;durP2;ratioP2
8895;SDS011;4484;48.928;10.066;2023-11-18T00:01:51;5.00;;;4.50;;
8895;SDS011;4484;48.928;10.066;2023-11-18T00:04:18;7.97;;;4.40;;
8895;SDS011;4484;48.928;10.066;2023-11-18T00:06:45;6.90;;;4.63;;
8895;SDS011;4484;48.928;10.066;2023-11-18T00:09:13;4.90;;;4.40;;
8895;SDS011;4484;48.928;10.066;2023-11-18T00:11:41;6.20;;;5.40;;
8895;SDS011;4484;48.928;10.066;2023-11-18T00:14:09;5.77;;;4.83;;
8895;SDS011;4484;48.928;10.066;2023-11-18T00:16:37;5.17;;;4.60;;
8895;SDS011;4484;48.928;10.066;2023-11-18T00:19:05;5.90;;;4.73;;
8895;SDS011;4484;48.928;10.066;2023-11-18T00:21:32;7.87;;;5.20;;
8895;SDS011;4484;48.928;10.066;2023-11-18T00:23:59;5.57;;;4.73;;
8895;SDS011;4484;48.928;10.066;2023-11-18T00:26:26;6.33;;;5.20;;
8895;SDS011;4484;48.928;10.066;2023-11-18T00:28:57;8.90;;;5.43;;
8895;SDS011;4484;48.928;10.066;2023-11-18T00:31:27;5.87;;;4.90;;
8895;SDS011;4484;48.928;10.066;2023-11-18T00:33:54;7.17;;;5.87;;
8895;SDS011;4484;48.928;10.066;2023-11-18T00:36:21;5.33;;;4.80;;
8895;SDS011;4484;48.928;10.066;2023-11-18T00:38:48;5.93;;;5.20;;
8895;SDS011;4484;48.928;10.066;2023-11-18T00:41:15;5.20;;;4.67;;
8895;SDS011;4484;48.928;10.066;2023-11-18T00:43:44;6.03;;;5.30;;
8895;SDS011;4484;48.928;10.066;2023-11-18T00:46:11;7.17;;;6.47;;
8895;SDS011;4484;48.928;10.066;2023-11-18T00:48:38;9.53;;;6.10;;
8895;SDS011;4484;48.928;10.066;2023-11-18T00:51:05;7.60;;;6.20;;
8895;SDS011;4484;48.928;10.066;2023-11-18T00:53:33;6.87;;;5.97;;
8895;SDS011;4484;48.928;10.066;2023-11-18T00:56:00;8.10;;;5.93;;
8895;SDS011;4484;48.928;10.066;2023-11-18T00:58:28;6.97;;;5.70;;
8895;SDS011;4484;48.928;10.066;2023-11-18T01:00:55;7.53;;;6.00;;
8895;SDS011;4484;48.928;10.066;2023-11-18T01:03:22;6.90;;;6.07;;
8895;SDS011;4484;48.928;10.066;2023-11-18T01:05:49;6.60;;;5.50;;
8895;SDS011;4484;48.928;10.066;2023-11-18T01:08:17;6.50;;;5.80;;
8895;SDS011;4484;48.928;10.066;2023-11-18T01:10:44;8.00;;;6.00;;
8895;SDS011;4484;48.928;10.066;2023-11-18T01:13:12;6.50;;;5.83;;
8895;SDS011;4484;48.928;10.066;2023-11-18T01:15:39;7.93;;;6.80;;
8895;SDS011;4484;48.928;10.066;2023-11-18T01:18:06;7.87;;;7.00;;
8895;SDS011;4484;48.928;10.066;2023-11-18T01:20:33;8.03;;;5.67;;
8895;SDS011;4484;48.928;10.066;2023-11-18T01:23:00;7.63;;;6.83;;
8895;SDS011;4484;48.928;10.066;2023-11-18T01:25:27;6.63;;;5.17;;
8895;SDS011;4484;48.928;10.066;2023-11-18T01:27:55;7.70;;;5.83;;
8895;SDS011;4484;48.928;10.066;2023-11-18T01:30:23;4.80;;;4.30;;
8895;SDS011;4484;48.928;10.066;2023-11-18T01:32:50;6.10;;;4.87;;
8895;SDS011;4484;48.928;10.066;2023-11-18T01:35:17;6.87;;;5.40;;
8895;SDS011;4484;48.928;10.066;2023-11-18T01:37:46;5.17;;;4.67;;
8895;SDS011;4484;48.928;10.066;2023-11-18T01:40:15;6.00;;;5.07;;
8895;SDS011;4484;48.928;10.066;2023-11-18T01:42:43;6.67;;;4.83;;
8895;SDS011;4484;48.928;10.066;2023-11-18T01:45:13;8.17;;;6.07;;
8895;SDS011;4484;48.928;10.066;2023-11-18T01:47:40;6.30;;;4.80;;
8895;SDS011;4484;48.928;10.066;2023-11-18T01:50:09;5.73;;;4.80;;
8895;SDS011;4484;48.928;10.066;2023-11-18T01:52:39;9.50;;;6.17;;
8895;SDS011;4484;48.928;10.066;2023-11-18T01:55:11;6.70;;;5.93;;
8895;SDS011;4484;48.928;10.066;2023-11-18T01:57:40;6.10;;;5.50;;
8895;SDS011;4484;48.928;10.066;2023-11-18T02:00:11;7.60;;;6.57;;
8895;SDS011;4484;48.928;10.066;2023-11-18T02:02:40;6.90;;;5.90;;
8895;SDS011;4484;48.928;10.066;2023-11-18T02:05:08;8.60;;;7.70;;
8895;SDS011;4484;48.928;10.066;2023-11-18T02:07:35;6.50;;;5.60;;
8895;SDS011;4484;48.928;10.066;2023-11-18T02:10:04;9.70;;;7.73;;
8895;SDS011;4484;48.928;10.066;2023-11-18T02:15:28;8.07;;;7.10;;
8895;SDS011;4484;48.928;10.066;2023-11-18T02:17:58;8.10;;;6.67;;
8895;SDS011;4484;48.928;10.066;2023-11-18T02:20:28;7.07;;;5.83;;
8895;SDS011;4484;48.928;10.066;2023-11-18T02:22:56;8.40;;;7.30;;
8895;SDS011;4484;48.928;10.066;2023-11-18T02:25:25;6.43;;;5.70;;
8895;SDS011;4484;48.928;10.066;2023-11-18T02:27:55;6.60;;;5.27;;
8895;SDS011;4484;48.928;10.066;2023-11-18T02:30:23;6.40;;;5.60;;
8895;SDS011;4484;48.928;10.066;2023-11-18T02:33:00;8.17;;;6.53;;
8895;SDS011;4484;48.928;10.066;2023-11-18T02:35:35;7.57;;;6.27;;
8895;SDS011;4484;48.928;10.066;2023-11-18T02:38:07;7.03;;;6.00;;
8895;SDS011;4484;48.928;10.066;2023-11-18T02:40:40;7.23;;;6.47;;
8895;SDS011;4484;48.928;10.066;2023-11-18T02:43:10;7.43;;;6.13;;
8895;SDS011;4484;48.928;10.066;2023-11-18T02:45:38;8.53;;;6.80;;
8895;SDS011;4484;48.928;10.066;2023-11-18T02:48:06;9.57;;;6.23;;
8895;SDS011;4484;48.928;10.066;2023-11-18T02:50:34;6.50;;;5.77;;
8895;SDS011;4484;48.928;10.066;2023-11-18T02:53:04;8.53;;;6.70;;
8895;SDS011;4484;48.928;10.066;2023-11-18T02:55:32;6.57;;;5.87;;
8895;SDS011;4484;48.928;10.066;2023-11-18T02:58:00;7.23;;;5.47;;
8895;SDS011;4484;48.928;10.066;2023-11-18T03:00:32;7.10;;;6.23;;
8895;SDS011;4484;48.928;10.066;2023-11-18T03:02:59;7.47;;;5.90;;
8895;SDS011;4484;48.928;10.066;2023-11-18T03:05:27;7.10;;;5.60;;
8895;SDS011;4484;48.928;10.066;2023-11-18T03:07:53;8.97;;;6.23;;
8895;SDS011;4484;48.928;10.066;2023-11-18T03:10:24;7.33;;;6.50;;
8895;SDS011;4484;48.928;10.066;2023-11-18T03:12:51;7.33;;;5.90;;
8895;SDS011;4484;48.928;10.066;2023-11-18T03:15:20;9.77;;;5.90;;
8895;SDS011;4484;48.928;10.066;2023-11-18T03:17:49;6.43;;;5.60;;
8895;SDS011;4484;48.928;10.066;2023-11-18T03:20:18;9.27;;;6.97;;
8895;SDS011;4484;48.928;10.066;2023-11-18T03:22:46;6.73;;;5.63;;
8895;SDS011;4484;48.928;10.066;2023-11-18T03:25:14;7.10;;;6.13;;
8895;SDS011;4484;48.928;10.066;2023-11-18T03:27:41;8.17;;;6.20;;
8895;SDS011;4484;48.928;10.066;2023-11-18T03:30:09;8.07;;;6.27;;
8895;SDS011;4484;48.928;10.066;2023-11-18T03:32:37;9.93;;;6.80;;
8895;SDS011;4484;48.928;10.066;2023-11-18T03:35:05;9.53;;;5.97;;
8895;SDS011;4484;48.928;10.066;2023-11-18T03:37:35;6.70;;;5.70;;
8895;SDS011;4484;48.928;10.066;2023-11-18T03:40:06;7.37;;;6.67;;
8895;SDS011;4484;48.928;10.066;2023-11-18T03:42:43;7.80;;;6.00;;
8895;SDS011;4484;48.928;10.066;2023-11-18T03:45:13;7.43;;;5.90;;
8895;SDS011;4484;48.928;10.066;2023-11-18T03:47:47;7.63;;;6.20;;
8895;SDS011;4484;48.928;10.066;2023-11-18T03:50:16;9.07;;;6.67;;
8895;SDS011;4484;48.928;10.066;2023-11-18T03:52:43;6.83;;;5.60;;
8895;SDS011;4484;48.928;10.066;2023-11-18T03:55:10;5.97;;;5.37;;
8895;SDS011;4484;48.928;10.066;2023-11-18T03:57:38;9.03;;;6.80;;
8895;SDS011;4484;48.928;10.066;2023-11-18T04:00:05;8.97;;;6.53;;
8895;SDS011;4484;48.928;10.066;2023-11-18T04:02:35;6.60;;;5.70;;
8895;SDS011;4484;48.928;10.066;2023-11-18T04:05:04;8.50;;;6.77;;
8895;SDS011;4484;48.928;10.066;2023-11-18T04:07:32;8.83;;;6.83;;
8895;SDS011;4484;48.928;10.066;2023-11-18T04:09:59;10.33;;;8.07;;
8895;SDS011;4484;48.928;10.066;2023-11-18T04:12:26;11.23;;;8.57;;
8895;SDS011;4484;48.928;10.066;2023-11-18T04:14:53;10.90;;;8.77;;
8895;SDS011;4484;48.928;10.066;2023-11-18T04:17:20;9.17;;;7.73;;
8895;SDS011;4484;48.928;10.066;2023-11-18T04:19:47;14.13;;;9.23;;
8895;SDS011;4484;48.928;10.066;2023-11-18T04:22:14;11.40;;;9.00;;
8895;SDS011;4484;48.928;10.066;2023-11-18T04:24:41;13.60;;;10.10;;
8895;SDS011;4484;48.928;10.066;2023-11-18T04:27:10;14.37;;;9.67;;
8895;SDS011;4484;48.928;10.066;2023-11-18T04:29:37;13.03;;;10.27;;
8895;SDS011;4484;48.928;10.066;2023-11-18T04:32:04;13.13;;;10.50;;
8895;SDS011;4484;48.928;10.066;2023-11-18T04:34:32;12.87;;;10.60;;
8895;SDS011;4484;48.928;10.066;2023-11-18T04:37:02;14.50;;;10.67;;
8895;SDS011;4484;48.928;10.066;2023-11-18T04:39:34;15.27;;;11.53;;
8895;SDS011;4484;48.928;10.066;2023-11-18T04:42:01;12.63;;;9.93;;
8895;SDS011;4484;48.928;10.066;2023-11-18T04:44:28;14.37;;;11.17;;
8895;SDS011;4484;48.928;10.066;2023-11-18T04:46:58;13.83;;;10.10;;
8895;SDS011;4484;48.928;10.066;2023-11-18T04:49:25;11.90;;;10.00;;
8895;SDS011;4484;48.928;10.066;2023-11-18T04:51:52;13.50;;;9.83;;
8895;SDS011;4484;48.928;10.066;2023-11-18T04:54:19;12.50;;;10.63;;
8895;SDS011;4484;48.928;10.066;2023-11-18T04:56:46;13.93;;;10.67;;
8895;SDS011;4484;48.928;10.066;2023-11-18T04:59:14;13.57;;;10.67;;
8895;SDS011;4484;48.928;10.066;2023-11-18T05:01:41;13.30;;;9.80;;
8895;SDS011;4484;48.928;10.066;2023-11-18T05:04:08;13.10;;;10.63;;
8895;SDS011;4484;48.928;10.066;2023-11-18T05:06:36;13.13;;;10.40;;
8895;SDS011;4484;48.928;10.066;2023-11-18T05:09:02;14.13;;;10.57;;
8895;SDS011;4484;48.928;10.066;2023-11-18T05:11:34;13.90;;;10.73;;
8895;SDS011;4484;48.928;10.066;2023-11-18T05:14:02;13.37;;;10.77;;
8895;SDS011;4484;48.928;10.066;2023-11-18T05:16:33;13.53;;;10.57;;
8895;SDS011;4484;48.928;10.066;2023-11-18T05:19:00;12.73;;;9.13;;
8895;SDS011;4484;48.928;10.066;2023-11-18T05:21:27;12.13;;;10.60;;
8895;SDS011;4484;48.928;10.066;2023-11-18T05:23:55;11.30;;;9.07;;
8895;SDS011;4484;48.928;10.066;2023-11-18T05:26:22;12.17;;;9.77;;
8895;SDS011;4484;48.928;10.066;2023-11-18T05:28:49;11.53;;;8.90;;
8895;SDS011;4484;48.928;10.066;2023-11-18T05:31:16;14.70;;;10.00;;
8895;SDS011;4484;48.928;10.066;2023-11-18T05:33:44;11.10;;;9.10;;
8895;SDS011;4484;48.928;10.066;2023-11-18T05:36:18;12.10;;;9.17;;
8895;SDS011;4484;48.928;10.066;2023-11-18T05:38:53;10.20;;;8.67;;
8895;SDS011;4484;48.928;10.066;2023-11-18T05:41:20;13.97;;;10.70;;
8895;SDS011;4484;48.928;10.066;2023-11-18T05:43:54;11.37;;;9.23;;
8895;SDS011;4484;48.928;10.066;2023-11-18T05:46:24;10.97;;;8.57;;
8895;SDS011;4484;48.928;10.066;2023-11-18T05:48:56;17.00;;;11.17;;
8895;SDS011;4484;48.928;10.066;2023-11-18T05:51:25;16.63;;;11.70;;
8895;SDS011;4484;48.928;10.066;2023-11-18T05:53:53;13.63;;;9.57;;
8895;SDS011;4484;48.928;10.066;2023-11-18T05:56:20;11.37;;;8.80;;
8895;SDS011;4484;48.928;10.066;2023-11-18T05:58:51;10.23;;;7.80;;
8895;SDS011;4484;48.928;10.066;2023-11-18T06:01:22;9.73;;;8.67;;
8895;SDS011;4484;48.928;10.066;2023-11-18T06:03:50;10.20;;;8.40;;
8895;SDS011;4484;48.928;10.066;2023-11-18T06:06:17;10.20;;;8.73;;
8895;SDS011;4484;48.928;10.066;2023-11-18T06:08:50;9.00;;;7.40;;
8895;SDS011;4484;48.928;10.066;2023-11-18T06:11:18;8.83;;;7.00;;
8895;SDS011;4484;48.928;10.066;2023-11-18T06:13:46;8.20;;;7.13;;
8895;SDS011;4484;48.928;10.066;2023-11-18T06:16:16;9.27;;;7.67;;
8895;SDS011;4484;48.928;10.066;2023-11-18T06:18:48;10.63;;;7.77;;
8895;SDS011;4484;48.928;10.066;2023-11-18T06:21:23;8.90;;;7.13;;
8895;SDS011;4484;48.928;10.066;2023-11-18T06:23:54;8.37;;;6.97;;
8895;SDS011;4484;48.928;10.066;2023-11-18T06:26:22;8.77;;;6.40;;
8895;SDS011;4484;48.928;10.066;2023-11-18T06:28:53;9.20;;;6.67;;
8895;SDS011;4484;48.928;10.066;2023-11-18T06:31:21;8.63;;;6.80;;
8895;SDS011;4484;48.928;10.066;2023-11-18T06:33:50;11.27;;;8.13;;
8895;SDS011;4484;48.928;10.066;2023-11-18T06:36:18;12.17;;;7.63;;
8895;SDS011;4484;48.928;10.066;2023-11-18T06:38:49;11.20;;;7.37;;
8895;SDS011;4484;48.928;10.066;2023-11-18T06:41:17;10.63;;;8.20;;
8895;SDS011;4484;48.928;10.066;2023-11-18T06:43:46;8.87;;;6.73;;
8895;SDS011;4484;48.928;10.066;2023-11-18T06:46:24;8.47;;;7.17;;
8895;SDS011;4484;48.928;10.066;2023-11-18T06:48:55;8.47;;;7.40;;
8895;SDS011;4484;48.928;10.066;2023-11-18T06:51:25;10.97;;;6.50;;
8895;SDS011;4484;48.928;10.066;2023-11-18T06:53:54;8.77;;;7.47;;
8895;SDS011;4484;48.928;10.066;2023-11-18T06:56:22;9.50;;;7.20;;
8895;SDS011;4484;48.928;10.066;2023-11-18T06:58:53;9.50;;;7.03;;
8895;SDS011;4484;48.928;10.066;2023-11-18T07:01:21;7.97;;;6.77;;
8895;SDS011;4484;48.928;10.066;2023-11-18T07:03:48;8.10;;;6.40;;
8895;SDS011;4484;48.928;10.066;2023-11-18T07:06:19;9.67;;;6.43;;
8895;SDS011;4484;48.928;10.066;2023-11-18T07:08:50;8.43;;;6.53;;
8895;SDS011;4484;48.928;10.066;2023-11-18T07:11:17;11.57;;;8.60;;
8895;SDS011;4484;48.928;10.066;2023-11-18T07:13:45;8.67;;;6.60;;
8895;SDS011;4484;48.928;10.066;2023-11-18T07:16:13;8.63;;;6.60;;
8895;SDS011;4484;48.928;10.066;2023-11-18T07:18:41;7.73;;;6.03;;
8895;SDS011;4484;48.928;10.066;2023-11-18T07:21:11;6.63;;;5.77;;
8895;SDS011;4484;48.928;10.066;2023-11-18T07:23:38;8.40;;;6.60;;
8895;SDS011;4484;48.928;10.066;2023-11-18T07:26:05;11.23;;;8.37;;
8895;SDS011;4484;48.928;10.066;2023-11-18T07:28:32;6.70;;;6.00;;
8895;SDS011;4484;48.928;10.066;2023-11-18T07:30:59;7.97;;;5.93;;
8895;SDS011;4484;48.928;10.066;2023-11-18T07:33:31;5.40;;;4.83;;
8895;SDS011;4484;48.928;10.066;2023-11-18T07:35:59;5.50;;;4.33;;
8895;SDS011;4484;48.928;10.066;2023-11-18T07:38:26;5.13;;;4.60;;
8895;SDS011;4484;48.928;10.066;2023-11-18T07:40:53;5.10;;;4.57;;
8895;SDS011;4484;48.928;10.066;2023-11-18T07:43:23;11.03;;;7.30;;
8895;SDS011;4484;48.928;10.066;2023-11-18T07:45:50;8.63;;;6.77;;
8895;SDS011;4484;48.928;10.066;2023-11-18T07:48:19;11.53;;;6.97;;
8895;SDS011;4484;48.928;10.066;2023-11-18T07:50:47;9.37;;;5.93;;
8895;SDS011;4484;48.928;10.066;2023-11-18T07:53:14;14.13;;;6.63;;
8895;SDS011;4484;48.928;10.066;2023-11-18T07:55:42;24.53;;;8.30;;
8895;SDS011;4484;48.928;10.066;2023-11-18T07:58:09;20.73;;;7.93;;
8895;SDS011;4484;48.928;10.066;2023-11-18T08:00:40;12.23;;;6.03;;
8895;SDS011;4484;48.928;10.066;2023-11-18T08:03:09;8.20;;;5.40;;
8895;SDS011;4484;48.928;10.066;2023-11-18T08:05:40;7.03;;;5.33;;
8895;SDS011;4484;48.928;10.066;2023-11-18T08:08:12;7.30;;;5.20;;
8895;SDS011;4484;48.928;10.066;2023-11-18T08:10:40;6.10;;;5.50;;
8895;SDS011;4484;48.928;10.066;2023-11-18T08:13:08;5.13;;;4.63;;
8895;SDS011;4484;48.928;10.066;2023-11-18T08:15:38;5.80;;;3.97;;
8895;SDS011;4484;48.928;10.066;2023-11-18T08:18:08;4.90;;;4.13;;
8895;SDS011;4484;48.928;10.066;2023-11-18T08:20:37;5.50;;;4.40;;
8895;SDS011;4484;48.928;10.066;2023-11-18T08:23:04;4.97;;;4.10;;
8895;SDS011;4484;48.928;10.066;2023-11-18T08:25:31;4.97;;;3.90;;
8895;SDS011;4484;48.928;10.066;2023-11-18T08:28:03;7.03;;;5.03;;
8895;SDS011;4484;48.928;10.066;2023-11-18T08:30:31;7.17;;;4.63;;
8895;SDS011;4484;48.928;10.066;2023-11-18T08:33:00;5.27;;;3.77;;
8895;SDS011;4484;48.928;10.066;2023-11-18T08:35:32;3.80;;;3.13;;
8895;SDS011;4484;48.928;10.066;2023-11-18T08:37:59;3.50;;;3.17;;
8895;SDS011;4484;48.928;10.066;2023-11-18T08:40:27;3.97;;;3.40;;
8895;SDS011;4484;48.928;10.066;2023-11-18T08:42:55;3.63;;;3.27;;
8895;SDS011;4484;48.928;10.066;2023-11-18T08:45:23;3.43;;;3.13;;
8895;SDS011;4484;48.928;10.066;2023-11-18T08:47:58;4.20;;;3.80;;
8895;SDS011;4484;48.928;10.066;2023-11-18T08:50:28;4.97;;;3.93;;
8895;SDS011;4484;48.928;10.066;2023-11-18T08:52:55;5.97;;;4.00;;
8895;SDS011;4484;48.928;10.066;2023-11-18T08:55:29;3.93;;;3.53;;
8895;SDS011;4484;48.928;10.066;2023-11-18T08:58:12;3.10;;;2.80;;
8895;SDS011;4484;48.928;10.066;2023-11-18T09:00:46;3.47;;;3.07;;
8895;SDS011;4484;48.928;10.066;2023-11-18T09:03:22;6.77;;;5.20;;
8895;SDS011;4484;48.928;10.066;2023-11-18T09:08:37;3.20;;;2.90;;
8895;SDS011;4484;48.928;10.066;2023-11-18T09:11:12;3.27;;;2.70;;
8895;SDS011;4484;48.928;10.066;2023-11-18T09:13:44;2.60;;;2.30;;
8895;SDS011;4484;48.928;10.066;2023-11-18T09:16:13;3.27;;;2.57;;
8895;SDS011;4484;48.928;10.066;2023-11-18T09:18:42;3.93;;;3.10;;
8895;SDS011;4484;48.928;10.066;2023-11-18T09:21:13;6.23;;;3.93;;
8895;SDS011;4484;48.928;10.066;2023-11-18T09:23:42;4.63;;;3.43;;
8895;SDS011;4484;48.928;10.066;2023-11-18T09:26:11;2.90;;;2.60;;
8895;SDS011;4484;48.928;10.066;2023-11-18T09:28:38;2.97;;;2.60;;
8895;SDS011;4484;48.928;10.066;2023-11-18T09:31:05;5.03;;;3.57;;
8895;SDS011;4484;48.928;10.066;2023-11-18T09:33:38;3.63;;;3.27;;
8895;SDS011;4484;48.928;10.066;2023-11-18T09:36:11;3.53;;;2.17;;
8895;SDS011;4484;48.928;10.066;2023-11-18T09:38:39;3.10;;;2.30;;
8895;SDS011;4484;48.928;10.066;2023-11-18T09:41:07;3.77;;;2.17;;
8895;SDS011;4484;48.928;10.066;2023-11-18T09:43:38;7.27;;;3.00;;
8895;SDS011;4484;48.928;10.066;2023-11-18T09:46:13;6.80;;;3.17;;
8895;SDS011;4484;48.928;10.066;2023-11-18T09:48:49;8.10;;;2.40;;
8895;SDS011;4484;48.928;10.066;2023-11-18T09:51:26;1.67;;;1.33;;
8895;SDS011;4484;48.928;10.066;2023-11-18T09:54:00;3.80;;;1.40;;
8895;SDS011;4484;48.928;10.066;2023-11-18T09:59:13;4.07;;;2.57;;
8895;SDS011;4484;48.928;10.066;2023-11-18T10:02:02;4.67;;;1.77;;
8895;SDS011;4484;48.928;10.066;2023-11-18T10:04:37;15.57;;;4.03;;
8895;SDS011;4484;48.928;10.066;2023-11-18T10:07:06;11.57;;;2.47;;
8895;SDS011;4484;48.928;10.066;2023-11-18T10:09:37;8.37;;;3.10;;
8895;SDS011;4484;48.928;10.066;2023-11-18T10:12:08;6.33;;;2.10;;
8895;SDS011;4484;48.928;10.066;2023-11-18T10:14:40;2.30;;;1.50;;
8895;SDS011;4484;48.928;10.066;2023-11-18T10:17:10;4.93;;;1.77;;
8895;SDS011;4484;48.928;10.066;2023-11-18T10:19:54;5.40;;;1.60;;
8895;SDS011;4484;48.928;10.066;2023-11-18T10:22:39;4.10;;;1.20;;
8895;SDS011;4484;48.928;10.066;2023-11-18T10:25:07;1.30;;;1.00;;
8895;SDS011;4484;48.928;10.066;2023-11-18T10:27:34;7.37;;;1.70;;
8895;SDS011;4484;48.928;10.066;2023-11-18T10:30:04;25.70;;;3.70;;
8895;SDS011;4484;48.928;10.066;2023-11-18T10:32:58;2.17;;;1.50;;
8895;SDS011;4484;48.928;10.066;2023-11-18T10:35:32;2.80;;;1.53;;
8895;SDS011;4484;48.928;10.066;2023-11-18T10:38:03;10.27;;;2.47;;
8895;SDS011;4484;48.928;10.066;2023-11-18T10:40:33;2.47;;;1.10;;
8895;SDS011;4484;48.928;10.066;2023-11-18T10:43:04;3.20;;;1.43;;
8895;SDS011;4484;48.928;10.066;2023-11-18T10:45:36;3.93;;;2.10;;
8895;SDS011;4484;48.928;10.066;2023-11-18T10:48:08;12.07;;;3.17;;
8895;SDS011;4484;48.928;10.066;2023-11-18T10:50:39;2.23;;;1.30;;
8895;SDS011;4484;48.928;10.066;2023-11-18T10:53:06;2.10;;;1.73;;
8895;SDS011;4484;48.928;10.066;2023-11-18T10:55:38;1.73;;;1.13;;
8895;SDS011;4484;48.928;10.066;2023-11-18T10:58:06;1.90;;;1.17;;
8895;SDS011;4484;48.928;10.066;2023-11-18T11:00:46;3.97;;;1.40;;
8895;SDS011;4484;48.928;10.066;2023-11-18T11:03:15;3.00;;;1.47;;
8895;SDS011;4484;48.928;10.066;2023-11-18T11:05:42;13.63;;;2.33;;
8895;SDS011;4484;48.928;10.066;2023-11-18T11:08:16;20.13;;;2.57;;
8895;SDS011;4484;48.928;10.066;2023-11-18T11:10:58;5.03;;;1.53;;
8895;SDS011;4484;48.928;10.066;2023-11-18T11:13:30;1.10;;;0.90;;
8895;SDS011;4484;48.928;10.066;2023-11-18T11:15:59;2.97;;;1.30;;
8895;SDS011;4484;48.928;10.066;2023-11-18T11:18:32;2.80;;;1.60;;
8895;SDS011;4484;48.928;10.066;2023-11-18T11:21:06;1.87;;;1.03;;
8895;SDS011;4484;48.928;10.066;2023-11-18T11:24:00;2.77;;;1.30;;
8895;SDS011;4484;48.928;10.066;2023-11-18T11:26:43;2.47;;;1.40;;
8895;SDS011;4484;48.928;10.066;2023-11-18T11:29:56;16.50;;;2.23;;
8895;SDS011;4484;48.928;10.066;2023-11-18T11:32:59;3.53;;;1.30;;
8895;SDS011;4484;48.928;10.066;2023-11-18T11:35:40;8.07;;;1.60;;
8895;SDS011;4484;48.928;10.066;2023-11-18T11:38:15;12.70;;;2.20;;
8895;SDS011;4484;48.928;10.066;2023-11-18T11:40:45;2.03;;;0.80;;
8895;SDS011;4484;48.928;10.066;2023-11-18T11:43:14;4.30;;;1.00;;
8895;SDS011;4484;48.928;10.066;2023-11-18T11:45:48;4.67;;;1.00;;
8895;SDS011;4484;48.928;10.066;2023-11-18T11:48:24;2.17;;;1.00;;
8895;SDS011;4484;48.928;10.066;2023-11-18T11:54:04;2.73;;;1.27;;
8895;SDS011;4484;48.928;10.066;2023-11-18T11:56:45;2.53;;;1.40;;
8895;SDS011;4484;48.928;10.066;2023-11-18T12:02:33;3.70;;;1.20;;
8895;SDS011;4484;48.928;10.066;2023-11-18T12:05:02;3.60;;;1.10;;
8895;SDS011;4484;48.928;10.066;2023-11-18T12:07:33;1.23;;;0.90;;
8895;SDS011;4484;48.928;10.066;2023-11-18T12:10:07;0.83;;;0.70;;
8895;SDS011;4484;48.928;10.066;2023-11-18T12:12:40;2.67;;;1.30;;
8895;SDS011;4484;48.928;10.066;2023-11-18T12:15:08;3.23;;;1.80;;
8895;SDS011;4484;48.928;10.066;2023-11-18T12:20:40;5.00;;;1.77;;
8895;SDS011;4484;48.928;10.066;2023-11-18T12:23:14;1.97;;;1.33;;
8895;SDS011;4484;48.928;10.066;2023-11-18T12:25:42;3.03;;;1.23;;
8895;SDS011;4484;48.928;10.066;2023-11-18T12:28:16;1.50;;;0.90;;
8895;SDS011;4484;48.928;10.066;2023-11-18T12:30:44;1.73;;;1.00;;
8895;SDS011;4484;48.928;10.066;2023-11-18T12:33:24;2.53;;;1.27;;
8895;SDS011;4484;48.928;10.066;2023-11-18T12:41:40;5.13;;;1.37;;
8895;SDS011;4484;48.928;10.066;2023-11-18T12:47:02;2.37;;;1.73;;
8895;SDS011;4484;48.928;10.066;2023-11-18T12:49:41;6.20;;;1.70;;
8895;SDS011;4484;48.928;10.066;2023-11-18T12:52:09;12.57;;;2.17;;
8895;SDS011;4484;48.928;10.066;2023-11-18T12:54:38;10.73;;;1.80;;
8895;SDS011;4484;48.928;10.066;2023-11-18T12:57:10;10.27;;;2.13;;
8895;SDS011;4484;48.928;10.066;2023-11-18T12:59:41;5.17;;;1.40;;
8895;SDS011;4484;48.928;10.066;2023-11-18T13:02:09;12.37;;;2.97;;
8895;SDS011;4484;48.928;10.066;2023-11-18T13:04:48;6.33;;;2.93;;
8895;SDS011;4484;48.928;10.066;2023-11-18T13:07:19;13.87;;;4.90;;
8895;SDS011;4484;48.928;10.066;2023-11-18T13:09:50;6.87;;;2.63;;
8895;SDS011;4484;48.928;10.066;2023-11-18T13:12:17;6.63;;;2.10;;
8895;SDS011;4484;48.928;10.066;2023-11-18T13:14:46;5.20;;;1.93;;
8895;SDS011;4484;48.928;10.066;2023-11-18T13:17:15;2.43;;;0.70;;
8895;SDS011;4484;48.928;10.066;2023-11-18T13:19:43;6.00;;;1.77;;
8895;SDS011;4484;48.928;10.066;2023-11-18T13:22:13;7.33;;;2.97;;
8895;SDS011;4484;48.928;10.066;2023-11-18T13:24:42;4.80;;;2.10;;
8895;SDS011;4484;48.928;10.066;2023-11-18T13:27:14;2.70;;;1.40;;
8895;SDS011;4484;48.928;10.066;2023-11-18T13:29:49;2.47;;;1.13;;
8895;SDS011;4484;48.928;10.066;2023-11-18T13:32:17;2.53;;;1.10;;
8895;SDS011;4484;48.928;10.066;2023-11-18T13:34:50;3.07;;;1.53;;
8895;SDS011;4484;48.928;10.066;2023-11-18T13:37:18;2.50;;;1.50;;
8895;SDS011;4484;48.928;10.066;2023-11-18T13:39:56;2.60;;;1.60;;
8895;SDS011;4484;48.928;10.066;2023-11-18T13:42:25;2.07;;;1.00;;
8895;SDS011;4484;48.928;10.066;2023-11-18T13:45:04;1.50;;;0.70;;
8895;SDS011;4484;48.928;10.066;2023-11-18T13:47:38;2.43;;;1.60;;
8895;SDS011;4484;48.928;10.066;2023-11-18T13:50:08;1.23;;;0.73;;
8895;SDS011;4484;48.928;10.066;2023-11-18T13:52:36;1.90;;;0.80;;
8895;SDS011;4484;48.928;10.066;2023-11-18T13:55:06;2.30;;;0.80;;
8895;SDS011;4484;48.928;10.066;2023-11-18T13:57:35;2.23;;;0.70;;
8895;SDS011;4484;48.928;10.066;2023-11-18T14:00:03;2.20;;;1.30;;
8895;SDS011;4484;48.928;10.066;2023-11-18T14:02:33;2.07;;;1.10;;
8895;SDS011;4484;48.928;10.066;2023-11-18T14:05:03;2.73;;;1.10;;
8895;SDS011;4484;48.928;10.066;2023-11-18T14:07:37;5.17;;;1.33;;
8895;SDS011;4484;48.928;10.066;2023-11-18T14:10:05;4.03;;;1.40;;
8895;SDS011;4484;48.928;10.066;2023-11-18T14:12:34;4.20;;;2.77;;
8895;SDS011;4484;48.928;10.066;2023-11-18T14:15:01;4.93;;;2.87;;
8895;SDS011;4484;48.928;10.066;2023-11-18T14:17:30;2.73;;;2.40;;
8895;SDS011;4484;48.928;10.066;2023-11-18T14:19:57;3.00;;;2.67;;
8895;SDS011;4484;48.928;10.066;2023-11-18T14:22:24;4.30;;;2.83;;
8895;SDS011;4484;48.928;10.066;2023-11-18T14:24:51;4.20;;;3.03;;
8895;SDS011;4484;48.928;10.066;2023-11-18T14:27:20;4.90;;;2.90;;
8895;SDS011;4484;48.928;10.066;2023-11-18T14:29:47;6.80;;;3.40;;
8895;SDS011;4484;48.928;10.066;2023-11-18T14:32:14;4.83;;;3.37;;
8895;SDS011;4484;48.928;10.066;2023-11-18T14:34:41;4.97;;;3.50;;
8895;SDS011;4484;48.928;10.066;2023-11-18T14:37:08;5.97;;;3.60;;
8895;SDS011;4484;48.928;10.066;2023-11-18T14:39:35;3.83;;;3.37;;
8895;SDS011;4484;48.928;10.066;2023-11-18T14:42:03;7.07;;;4.00;;
8895;SDS011;4484;48.928;10.066;2023-11-18T14:44:30;5.07;;;3.60;;
8895;SDS011;4484;48.928;10.066;2023-11-18T14:46:57;6.00;;;3.97;;
8895;SDS011;4484;48.928;10.066;2023-11-18T14:49:26;4.87;;;3.60;;
8895;SDS011;4484;48.928;10.066;2023-11-18T14:51:53;7.03;;;3.77;;
8895;SDS011;4484;48.928;10.066;2023-11-18T14:54:20;5.47;;;3.80;;
8895;SDS011;4484;48.928;10.066;2023-11-18T14:56:47;4.80;;;4.30;;
8895;SDS011;4484;48.928;10.066;2023-11-18T14:59:15;5.73;;;4.20;;
8895;SDS011;4484;48.928;10.066;2023-11-18T15:01:42;6.93;;;4.03;;
8895;SDS011;4484;48.928;10.066;2023-11-18T15:04:10;5.80;;;3.83;;
8895;SDS011;4484;48.928;10.066;2023-11-18T15:06:38;9.07;;;6.17;;
8895;SDS011;4484;48.928;10.066;2023-11-18T15:09:07;14.27;;;8.80;;
8895;SDS011;4484;48.928;10.066;2023-11-18T15:11:37;20.30;;;12.70;;
8895;SDS011;4484;48.928;10.066;2023-11-18T15:14:04;59.47;;;28.43;;
8895;SDS011;4484;48.928;10.066;2023-11-18T15:16:34;18.03;;;10.40;;
8895;SDS011;4484;48.928;10.066;2023-11-18T15:19:01;6.63;;;4.83;;
8895;SDS011;4484;48.928;10.066;2023-11-18T15:21:28;9.67;;;5.97;;
8895;SDS011;4484;48.928;10.066;2023-11-18T15:23:56;7.83;;;4.87;;
8895;SDS011;4484;48.928;10.066;2023-11-18T15:26:28;8.37;;;5.37;;
8895;SDS011;4484;48.928;10.066;2023-11-18T15:28:57;9.90;;;5.77;;
8895;SDS011;4484;48.928;10.066;2023-11-18T15:31:25;5.57;;;3.97;;
8895;SDS011;4484;48.928;10.066;2023-11-18T15:33:55;5.37;;;4.10;;
8895;SDS011;4484;48.928;10.066;2023-11-18T15:36:23;7.27;;;4.17;;
8895;SDS011;4484;48.928;10.066;2023-11-18T15:38:51;7.57;;;4.83;;
8895;SDS011;4484;48.928;10.066;2023-11-18T15:41:18;5.80;;;4.67;;